createdAt,value
2022-09-14T00:00:08.538Z,17.0
2022-09-14T00:05:07.967Z,17.0
2022-09-14T00:10:07.633Z,17.1
2022-09-14T00:15:08.352Z,17.1
2022-09-14T00:20:08.068Z,17.1
2022-09-14T00:25:07.749Z,17.1
2022-09-14T00:30:08.499Z,17.0
2022-09-14T00:35:08.211Z,17.0
2022-09-14T00:40:07.934Z,16.7
2022-09-14T00:45:17.683Z,16.7
2022-09-14T00:50:08.399Z,17.0
2022-09-14T00:55:08.101Z,17.0
2022-09-14T01:00:07.797Z,17.0
2022-09-14T01:05:08.516Z,17.0
2022-09-14T01:10:08.301Z,16.7
2022-09-14T01:15:08.009Z,16.7
2022-09-14T01:20:07.683Z,16.7
2022-09-14T01:25:08.438Z,16.7
2022-09-14T01:30:08.153Z,16.7
2022-09-14T01:35:15.821Z,16.7
2022-09-14T01:40:07.912Z,16.7
2022-09-14T01:45:07.692Z,16.7
2022-09-14T01:50:08.400Z,16.7
2022-09-14T01:55:08.131Z,16.7
2022-09-14T02:00:07.845Z,16.7
2022-09-14T02:05:08.545Z,16.7
2022-09-14T02:10:08.276Z,16.7
2022-09-14T02:15:07.986Z,16.7
2022-09-14T02:20:07.729Z,16.3
2022-09-14T02:25:08.438Z,16.3
2022-09-14T02:30:08.133Z,16.3
2022-09-14T02:35:07.820Z,16.3
2022-09-14T02:40:08.589Z,16.2
2022-09-14T02:45:08.368Z,16.2
2022-09-14T02:50:08.226Z,16.2
2022-09-14T02:55:07.931Z,16.2
2022-09-14T03:00:08.647Z,16.0
2022-09-14T03:05:08.323Z,15.8
2022-09-14T03:10:08.011Z,15.8
2022-09-14T03:15:07.679Z,15.8
2022-09-14T03:20:08.359Z,15.6
2022-09-14T03:25:08.060Z,15.5
2022-09-14T03:30:07.760Z,15.5
2022-09-14T03:35:08.460Z,15.5
2022-09-14T03:40:08.289Z,15.5
2022-09-14T03:45:08.038Z,15.3
2022-09-14T03:50:07.713Z,15.1
2022-09-14T03:55:08.436Z,15.1
2022-09-14T04:00:08.145Z,14.1
2022-09-14T04:05:02.156Z,13.8
2022-09-14T04:10:02.006Z,13.6
2022-09-14T04:15:02.081Z,13.6
2022-09-14T04:20:02.048Z,13.6
2022-09-14T04:25:02.096Z,13.6
2022-09-14T04:30:01.857Z,13.6
2022-09-14T04:35:02.678Z,13.5
2022-09-14T04:40:02.979Z,13.6
2022-09-14T04:45:01.955Z,13.6
2022-09-14T04:50:01.752Z,13.8
2022-09-14T04:55:02.625Z,13.6
2022-09-14T05:00:02.433Z,13.6
2022-09-14T05:05:02.261Z,13.6
2022-09-14T05:10:02.086Z,13.6
2022-09-14T05:15:01.961Z,13.3
2022-09-14T05:20:01.964Z,13.3
2022-09-14T05:25:01.930Z,13.5
2022-09-14T05:30:02.847Z,13.3
2022-09-14T05:35:02.684Z,13.3
2022-09-14T05:40:02.653Z,13.3
2022-09-14T05:45:02.684Z,13.3
2022-09-14T05:50:02.635Z,13.3
2022-09-14T05:55:02.962Z,13.1
2022-09-14T06:00:01.896Z,13.1
2022-09-14T06:05:02.878Z,13.3
2022-09-14T06:10:02.835Z,13.5
2022-09-14T06:15:02.955Z,13.6
2022-09-14T06:20:04.847Z,13.5
2022-09-14T06:25:02.069Z,13.3
2022-09-14T06:30:02.096Z,13.5
2022-09-14T06:35:02.248Z,13.5
2022-09-14T06:40:02.506Z,13.6
2022-09-14T06:45:02.443Z,13.5
2022-09-14T06:50:02.277Z,13.5
2022-09-14T06:55:02.082Z,13.6
2022-09-14T07:00:02.783Z,13.8
2022-09-14T07:05:02.563Z,13.6
2022-09-14T07:10:02.436Z,13.3
2022-09-14T07:15:02.316Z,13.6
2022-09-14T07:20:02.227Z,13.6
2022-09-14T07:25:02.066Z,13.8
2022-09-14T07:30:01.910Z,14.0
2022-09-14T07:35:02.888Z,13.8
2022-09-14T07:40:02.760Z,14.0
2022-09-14T07:45:06.223Z,14.0
2022-09-14T07:50:02.364Z,14.1
2022-09-14T07:55:02.213Z,14.0
2022-09-14T08:00:02.026Z,14.1
2022-09-14T08:05:01.983Z,13.8
2022-09-14T08:10:01.865Z,14.1
2022-09-14T08:15:02.717Z,14.3
2022-09-14T08:20:02.554Z,14.0
2022-09-14T08:25:02.532Z,14.0
2022-09-14T08:30:02.396Z,14.1
2022-09-14T08:35:02.287Z,14.1
2022-09-14T08:40:02.211Z,13.8
2022-09-14T08:45:06.244Z,13.8
2022-09-14T08:50:01.778Z,13.8
2022-09-14T08:55:02.734Z,14.1
2022-09-14T09:00:02.745Z,14.1
2022-09-14T09:05:12.759Z,14.0
2022-09-14T09:10:02.760Z,14.3
2022-09-14T09:15:02.744Z,14.1
2022-09-14T09:20:02.620Z,14.3
2022-09-14T09:25:02.545Z,14.0
2022-09-14T09:30:02.363Z,14.1
2022-09-14T09:35:02.266Z,14.3
2022-09-14T09:40:02.113Z,14.5
2022-09-14T09:45:03.945Z,13.8
2022-09-14T09:50:02.090Z,14.0
2022-09-14T09:55:01.939Z,14.0
2022-09-14T10:00:02.717Z,14.0
2022-09-14T10:05:12.494Z,14.3
2022-09-14T10:10:02.373Z,14.3
2022-09-14T10:15:02.213Z,14.3
2022-09-14T10:20:02.049Z,14.3
2022-09-14T10:25:01.995Z,14.3
2022-09-14T10:30:01.969Z,14.0
2022-09-14T10:35:01.798Z,14.3
2022-09-14T10:40:02.758Z,14.5
2022-09-14T10:45:02.590Z,14.1
2022-09-14T10:50:12.421Z,14.3
2022-09-14T10:55:02.247Z,14.3
2022-09-14T11:00:02.086Z,14.1
2022-09-14T11:05:02.044Z,14.6
2022-09-14T11:10:01.867Z,14.3
2022-09-14T11:15:02.700Z,14.0
2022-09-14T11:20:02.577Z,14.0
2022-09-14T11:25:02.361Z,14.3
2022-09-14T11:30:02.220Z,14.0
2022-09-14T11:35:02.128Z,14.3
2022-09-14T11:40:02.130Z,14.6
2022-09-14T11:45:02.048Z,14.1
2022-09-14T11:50:01.921Z,14.3
2022-09-14T11:55:02.973Z,14.6
2022-09-14T12:00:01.858Z,14.5
2022-09-14T12:05:06.277Z,13.6
2022-09-14T12:10:02.209Z,14.3
2022-09-14T12:15:02.047Z,14.6
2022-09-14T12:20:01.852Z,14.0
2022-09-14T12:25:02.602Z,14.8
2022-09-14T12:30:02.452Z,15.1
2022-09-14T12:35:02.260Z,14.8
2022-09-14T12:40:02.056Z,15.0
2022-09-14T12:45:01.832Z,14.0
2022-09-14T12:50:02.685Z,14.5
2022-09-14T12:55:02.503Z,15.1
2022-09-14T13:00:02.229Z,15.1
2022-09-14T13:05:02.102Z,15.1
2022-09-14T13:10:01.945Z,15.0
2022-09-14T13:15:01.704Z,15.0
2022-09-14T13:20:02.521Z,15.1
2022-09-14T13:25:02.309Z,14.5
2022-09-14T13:30:12.108Z,14.3
2022-09-14T13:35:01.840Z,14.5
2022-09-14T13:40:02.702Z,15.0
2022-09-14T13:45:02.532Z,15.0
2022-09-14T13:50:02.397Z,14.8
2022-09-14T13:55:02.219Z,14.8
2022-09-14T14:00:12.029Z,14.8
2022-09-14T14:05:01.882Z,14.8
2022-09-14T14:10:02.780Z,15.0
2022-09-14T14:15:02.757Z,15.0
2022-09-14T14:20:02.732Z,15.1
2022-09-14T14:25:13.252Z,15.1
2022-09-14T14:30:01.980Z,15.6
2022-09-14T14:35:01.926Z,15.6
2022-09-14T14:40:02.984Z,16.3
2022-09-14T14:45:01.944Z,16.3
2022-09-14T14:50:01.986Z,16.6
2022-09-14T14:55:01.785Z,16.6
2022-09-14T15:00:02.646Z,17.1
2022-09-14T15:05:02.456Z,17.1
2022-09-14T15:10:02.221Z,17.1
2022-09-14T15:15:02.015Z,17.1
2022-09-14T15:20:01.843Z,17.1
2022-09-14T15:25:02.642Z,17.1
2022-09-14T15:30:02.620Z,17.5
2022-09-14T15:35:02.367Z,17.5
2022-09-14T15:40:02.212Z,17.3
2022-09-14T15:45:02.027Z,17.3
2022-09-14T15:50:01.841Z,17.5
2022-09-14T15:55:02.736Z,17.5
2022-09-14T16:00:02.653Z,16.7
2022-09-14T16:05:02.468Z,16.7
2022-09-14T16:10:02.285Z,17.2
2022-09-14T16:15:02.116Z,17.2
2022-09-14T16:20:02.048Z,17.3
2022-09-14T16:25:01.880Z,17.3
2022-09-14T16:30:02.751Z,17.2
2022-09-14T16:35:07.260Z,17.2
2022-09-14T16:40:01.873Z,17.1
2022-09-14T16:45:02.661Z,17.1
2022-09-14T16:50:02.505Z,17.0
2022-09-14T16:55:02.309Z,17.0
2022-09-14T17:00:02.232Z,16.3
2022-09-14T17:05:02.167Z,16.3
2022-09-14T17:10:02.054Z,16.2
2022-09-14T17:15:02.080Z,16.2
2022-09-14T17:20:02.145Z,15.8
2022-09-14T17:25:02.075Z,15.8
2022-09-14T17:30:02.164Z,15.8
2022-09-14T17:35:01.960Z,15.8
2022-09-14T17:40:01.977Z,15.3
2022-09-14T17:45:01.835Z,15.3
2022-09-14T17:50:02.666Z,15.1
2022-09-14T17:55:02.485Z,15.1
2022-09-14T18:00:02.378Z,14.8
2022-09-14T18:05:02.156Z,14.8
2022-09-14T18:10:01.978Z,14.6
2022-09-14T18:15:01.831Z,14.6
2022-09-14T18:20:02.644Z,14.6
2022-09-14T18:25:02.480Z,14.3
2022-09-14T18:30:02.416Z,14.3
2022-09-14T18:35:02.264Z,14.3
2022-09-14T18:40:02.143Z,14.1
2022-09-14T18:45:02.036Z,14.1
2022-09-14T18:50:01.840Z,14.0
2022-09-14T18:55:02.677Z,14.0
2022-09-14T19:00:02.550Z,13.6
2022-09-14T19:05:02.439Z,13.6
2022-09-14T19:10:02.319Z,13.8
2022-09-14T19:15:02.116Z,13.8
2022-09-14T19:20:04.802Z,13.6
2022-09-14T19:25:02.684Z,13.6
2022-09-14T19:30:02.520Z,13.6
2022-09-14T19:35:02.352Z,13.6
2022-09-14T19:40:02.357Z,13.5
2022-09-14T19:45:02.302Z,13.5
2022-09-14T19:50:02.272Z,13.3
2022-09-14T19:55:02.228Z,13.3
2022-09-14T20:00:02.117Z,13.3
2022-09-14T20:05:01.934Z,13.3
2022-09-14T20:10:02.806Z,12.8
2022-09-14T20:15:02.793Z,12.8
2022-09-14T20:20:02.677Z,13.1
2022-09-14T20:25:02.460Z,13.1
2022-09-14T20:30:02.323Z,13.1
2022-09-14T20:35:14.964Z,13.1
2022-09-14T20:40:07.741Z,13.1
2022-09-14T20:45:08.504Z,13.1
2022-09-14T20:50:08.203Z,13.1
2022-09-14T20:55:07.931Z,13.1
2022-09-14T21:00:08.627Z,13.5
2022-09-14T21:05:08.361Z,13.5
2022-09-14T21:10:08.073Z,13.6
2022-09-14T21:15:07.795Z,13.6
2022-09-14T21:20:08.498Z,13.6
2022-09-14T21:25:08.190Z,13.6
2022-09-14T21:30:07.898Z,13.8
2022-09-14T21:35:08.616Z,13.8
2022-09-14T21:40:08.405Z,13.8
2022-09-14T21:45:08.129Z,13.8
2022-09-14T21:50:07.820Z,14.0
2022-09-14T21:55:08.518Z,14.0
2022-09-14T22:00:08.296Z,14.0
2022-09-14T22:05:08.084Z,14.0
2022-09-14T22:10:07.817Z,14.1
2022-09-14T22:15:08.503Z,14.1
2022-09-14T22:20:08.238Z,14.1
2022-09-14T22:25:08.017Z,14.1
2022-09-14T22:30:07.733Z,14.3
2022-09-14T22:35:08.441Z,14.3
2022-09-14T22:40:08.182Z,14.3
2022-09-14T22:45:07.985Z,14.3
2022-09-14T22:50:07.683Z,14.3
2022-09-14T22:55:08.441Z,14.3
2022-09-14T23:01:00.844Z,14.3
2022-09-14T23:05:08.595Z,14.3
2022-09-14T23:10:08.161Z,14.3
2022-09-14T23:15:07.865Z,14.3
2022-09-14T23:20:08.561Z,14.0
2022-09-14T23:25:08.273Z,14.0
2022-09-14T23:30:07.979Z,13.8
2022-09-14T23:35:07.696Z,13.8
2022-09-14T23:40:08.467Z,13.6
2022-09-14T23:45:08.239Z,13.6
2022-09-14T23:50:07.963Z,13.3
2022-09-14T23:55:07.671Z,13.3
